Time;durP1;ratioP1;P1;durP2;ratioP2;P2;SDS_P1;SDS_P2;PMS_P1;PMS_P2;Temp;Humidity;BMP_temperature;BMP_pressure;BME280_temperature;BME280_humidity;BME280_pressure;Samples;Min_cycle;Max_cycle;Signal;HPM_P1;HPM_P2
2023/03/02 00:00:10;;;;;;;5.10;2.33;;;;;;;;;;4987649;28;20050;-66
2023/03/02 00:02:39;;;;;;;2.78;1.70;;;;;;;;;;4987293;28;20484;-67
2023/03/02 00:05:09;;;;;;;2.45;1.95;;;;;;;;;;4990297;28;20051;-63
2023/03/02 00:07:38;;;;;;;5.00;2.88;;;;;;;;;;4981928;28;20054;-67
2023/03/02 00:10:07;;;;;;;4.45;2.10;;;;;;;;;;4988094;28;20068;-64
2023/03/02 00:12:35;;;;;;;3.90;2.53;;;;;;;;;;4986036;28;20408;-65
2023/03/02 00:15:03;;;;;;;2.35;1.73;;;;;;;;;;4981337;28;20077;-63
2023/03/02 00:17:32;;;;;;;2.88;1.40;;;;;;;;;;4987511;28;20519;-66
2023/03/02 00:20:08;;;;;;;4.28;1.65;;;;;;;;;;4993200;28;20061;-66
2023/03/02 00:22:37;;;;;;;1.50;1.40;;;;;;;;;;4992020;28;20104;-66
2023/03/02 00:25:06;;;;;;;1.88;1.27;;;;;;;;;;4993470;28;20069;-65
2023/03/02 00:27:34;;;;;;;5.75;1.83;;;;;;;;;;4992329;28;20042;-67
2023/03/02 00:30:03;;;;;;;2.45;1.90;;;;;;;;;;4993128;28;20068;-67
2023/03/02 00:32:33;;;;;;;4.18;1.45;;;;;;;;;;4988796;28;20096;-66
2023/03/02 00:35:03;;;;;;;2.47;2.28;;;;;;;;;;4993433;28;20085;-67
2023/03/02 00:37:32;;;;;;;5.15;2.05;;;;;;;;;;4990905;28;20054;-64
2023/03/02 00:40:00;;;;;;;1.75;1.65;;;;;;;;;;4988190;28;20054;-67
2023/03/02 00:42:28;;;;;;;1.67;1.58;;;;;;;;;;4989601;28;20050;-66
2023/03/02 00:45:00;;;;;;;1.48;0.93;;;;;;;;;;4993126;28;20064;-66
2023/03/02 00:47:28;;;;;;;4.68;1.30;;;;;;;;;;4989141;28;20048;-66
2023/03/02 00:49:57;;;;;;;2.88;2.13;;;;;;;;;;4994177;28;20073;-66
2023/03/02 00:52:26;;;;;;;3.90;3.40;;;;;;;;;;4991237;28;20053;-67
2023/03/02 00:54:55;;;;;;;2.60;1.60;;;;;;;;;;4992786;28;20054;-66
2023/03/02 00:57:23;;;;;;;3.97;1.83;;;;;;;;;;4987541;28;20061;-65
2023/03/02 00:59:51;;;;;;;4.32;2.60;;;;;;;;;;4991404;28;20054;-66
2023/03/02 01:02:21;;;;;;;3.75;1.10;;;;;;;;;;4991599;28;20081;-65
2023/03/02 01:04:51;;;;;;;5.15;1.63;;;;;;;;;;4994111;28;20050;-66
2023/03/02 01:07:21;;;;;;;2.85;2.03;;;;;;;;;;4987881;28;20065;-65
2023/03/02 01:09:50;;;;;;;2.95;2.08;;;;;;;;;;4988372;28;20081;-67
2023/03/02 01:12:19;;;;;;;3.55;2.38;;;;;;;;;;4985668;28;20050;-66
2023/03/02 01:14:49;;;;;;;9.05;2.45;;;;;;;;;;4985574;28;20054;-66
2023/03/02 01:17:18;;;;;;;3.38;1.58;;;;;;;;;;4988718;28;20058;-66
2023/03/02 01:19:47;;;;;;;5.55;2.55;;;;;;;;;;4987493;28;20065;-66
2023/03/02 01:22:15;;;;;;;5.68;2.03;;;;;;;;;;4991979;28;20081;-66
2023/03/02 01:24:43;;;;;;;4.45;3.15;;;;;;;;;;4991568;28;20066;-64
2023/03/02 01:27:13;;;;;;;0.82;0.75;;;;;;;;;;4989459;28;20042;-66
2023/03/02 01:29:41;;;;;;;3.35;1.88;;;;;;;;;;4987270;28;20415;-67
2023/03/02 01:32:09;;;;;;;2.03;1.05;;;;;;;;;;4987683;28;20046;-67
2023/03/02 01:34:38;;;;;;;3.67;2.15;;;;;;;;;;4991630;28;20053;-67
2023/03/02 01:37:06;;;;;;;3.15;1.92;;;;;;;;;;4984612;28;20428;-66
2023/03/02 01:39:34;;;;;;;6.63;1.52;;;;;;;;;;4991866;28;20053;-66
2023/03/02 01:42:02;;;;;;;2.13;1.92;;;;;;;;;;4988126;28;20060;-67
2023/03/02 01:44:36;;;;;;;7.57;1.42;;;;;;;;;;4986196;28;20054;-65
2023/03/02 01:47:04;;;;;;;8.63;3.13;;;;;;;;;;4988424;28;20046;-66
2023/03/02 01:49:36;;;;;;;3.60;2.03;;;;;;;;;;4990208;28;20066;-66
2023/03/02 01:52:04;;;;;;;2.00;1.75;;;;;;;;;;4984780;28;20502;-66
2023/03/02 01:54:33;;;;;;;2.50;2.30;;;;;;;;;;4991277;28;20448;-66
2023/03/02 01:57:02;;;;;;;1.23;0.93;;;;;;;;;;4989172;28;20133;-66
2023/03/02 01:59:32;;;;;;;2.17;1.85;;;;;;;;;;4990238;28;20081;-66
2023/03/02 02:02:04;;;;;;;9.27;1.35;;;;;;;;;;4989372;28;20064;-66
2023/03/02 02:04:33;;;;;;;6.20;2.40;;;;;;;;;;4987691;28;20505;-68
2023/03/02 02:07:02;;;;;;;1.80;1.58;;;;;;;;;;4984291;28;20484;-66
2023/03/02 02:09:32;;;;;;;1.58;1.38;;;;;;;;;;4989013;28;20078;-67
2023/03/02 02:12:01;;;;;;;6.63;3.22;;;;;;;;;;4986471;28;20050;-64
2023/03/02 02:14:29;;;;;;;5.68;2.05;;;;;;;;;;4977320;28;20042;-67
2023/03/02 02:16:58;;;;;;;1.85;1.75;;;;;;;;;;4990165;28;20070;-67
2023/03/02 02:19:34;;;;;;;6.35;1.73;;;;;;;;;;4988377;28;20046;-67
2023/03/02 02:22:03;;;;;;;3.85;2.17;;;;;;;;;;4989245;28;20042;-67
2023/03/02 02:24:33;;;;;;;1.67;1.48;;;;;;;;;;4988253;28;20054;-67
2023/03/02 02:27:03;;;;;;;3.50;2.30;;;;;;;;;;4984843;28;20049;-66
2023/03/02 02:29:33;;;;;;;2.47;1.95;;;;;;;;;;4982280;28;20051;-66
2023/03/02 02:32:03;;;;;;;4.00;1.25;;;;;;;;;;4989318;28;20097;-65
2023/03/02 02:34:33;;;;;;;2.35;1.60;;;;;;;;;;4987166;28;20046;-67
2023/03/02 02:37:07;;;;;;;3.78;2.03;;;;;;;;;;4989501;28;20405;-66
2023/03/02 02:39:37;;;;;;;1.25;1.17;;;;;;;;;;4989264;28;20411;-67
2023/03/02 02:42:08;;;;;;;5.25;3.55;;;;;;;;;;4993561;28;20078;-66
2023/03/02 02:44:37;;;;;;;9.15;2.70;;;;;;;;;;4984441;28;20054;-66
2023/03/02 02:47:06;;;;;;;2.95;2.33;;;;;;;;;;4987564;28;20052;-67
2023/03/02 02:49:36;;;;;;;2.78;1.60;;;;;;;;;;4988083;28;20054;-67
2023/03/02 02:52:05;;;;;;;1.33;1.23;;;;;;;;;;4979275;28;20138;-67
2023/03/02 02:54:35;;;;;;;2.13;1.38;;;;;;;;;;4987877;28;20133;-67
2023/03/02 02:57:04;;;;;;;2.10;1.27;;;;;;;;;;4990513;28;20491;-64
2023/03/02 02:59:36;;;;;;;5.15;2.65;;;;;;;;;;4985361;28;20534;-66
2023/03/02 03:02:04;;;;;;;4.72;1.23;;;;;;;;;;4988236;28;20047;-67
2023/03/02 03:04:33;;;;;;;8.48;1.58;;;;;;;;;;4984203;28;20116;-67
2023/03/02 03:07:03;;;;;;;4.93;2.17;;;;;;;;;;4989729;28;20054;-67
2023/03/02 03:09:32;;;;;;;3.15;1.58;;;;;;;;;;4988441;28;20042;-67
2023/03/02 03:12:02;;;;;;;7.15;2.45;;;;;;;;;;4990849;28;20133;-64
2023/03/02 03:14:34;;;;;;;2.08;1.70;;;;;;;;;;4984624;28;20406;-67
2023/03/02 03:17:11;;;;;;;1.98;1.48;;;;;;;;;;4989377;28;20133;-67
2023/03/02 03:19:41;;;;;;;1.73;1.42;;;;;;;;;;4987230;28;20058;-67
2023/03/02 03:22:10;;;;;;;1.13;1.13;;;;;;;;;;4985234;28;20511;-67
2023/03/02 03:24:39;;;;;;;3.50;1.52;;;;;;;;;;4986261;28;20116;-67
2023/03/02 03:27:08;;;;;;;3.50;1.60;;;;;;;;;;4990883;28;20396;-67
2023/03/02 03:29:38;;;;;;;5.43;2.13;;;;;;;;;;4984976;28;20389;-67
2023/03/02 03:32:08;;;;;;;3.25;2.90;;;;;;;;;;4984937;28;20046;-67
2023/03/02 03:34:39;;;;;;;2.80;1.90;;;;;;;;;;4987731;28;20356;-66
2023/03/02 03:37:08;;;;;;;0.73;0.70;;;;;;;;;;4988853;28;20451;-66
2023/03/02 03:39:36;;;;;;;2.28;1.40;;;;;;;;;;4989164;28;20045;-68
2023/03/02 03:42:05;;;;;;;1.33;1.25;;;;;;;;;;4993416;28;20046;-67
2023/03/02 03:44:33;;;;;;;2.25;1.45;;;;;;;;;;4986084;28;20050;-67
2023/03/02 03:47:01;;;;;;;0.43;0.43;;;;;;;;;;4988765;28;20050;-67
2023/03/02 03:49:31;;;;;;;2.38;1.15;;;;;;;;;;4983072;28;20066;-67
2023/03/02 03:51:59;;;;;;;5.95;2.08;;;;;;;;;;4992223;28;20057;-64
2023/03/02 03:54:28;;;;;;;3.28;1.65;;;;;;;;;;4979595;28;20076;-66
2023/03/02 03:56:56;;;;;;;1.42;1.33;;;;;;;;;;4992027;28;20049;-66
2023/03/02 03:59:25;;;;;;;1.83;1.30;;;;;;;;;;4989376;28;20053;-67
2023/03/02 04:01:55;;;;;;;5.07;1.15;;;;;;;;;;4989377;28;20050;-65
2023/03/02 04:04:24;;;;;;;3.92;1.77;;;;;;;;;;4991839;28;20165;-68
2023/03/02 04:06:54;;;;;;;3.58;1.50;;;;;;;;;;4985946;28;20048;-68
2023/03/02 04:09:22;;;;;;;1.50;1.00;;;;;;;;;;4991546;28;20050;-68
2023/03/02 04:11:52;;;;;;;2.35;1.48;;;;;;;;;;4989728;28;20581;-68
2023/03/02 04:14:21;;;;;;;1.60;1.38;;;;;;;;;;4988715;28;20061;-67
2023/03/02 04:16:49;;;;;;;0.95;0.95;;;;;;;;;;4992292;28;20050;-67
2023/03/02 04:19:17;;;;;;;1.73;1.58;;;;;;;;;;4990829;28;20491;-68
2023/03/02 04:21:47;;;;;;;3.20;1.83;;;;;;;;;;4991638;28;20412;-67
2023/03/02 04:24:17;;;;;;;1.58;1.50;;;;;;;;;;4989005;28;20047;-65
2023/03/02 04:26:45;;;;;;;1.58;0.93;;;;;;;;;;4992140;28;20061;-67
2023/03/02 04:29:14;;;;;;;1.33;1.23;;;;;;;;;;4989951;28;20068;-66
2023/03/02 04:31:42;;;;;;;6.97;1.60;;;;;;;;;;4985281;28;20529;-65
2023/03/02 04:34:11;;;;;;;0.63;0.63;;;;;;;;;;4992319;28;20050;-67
2023/03/02 04:36:39;;;;;;;3.25;1.58;;;;;;;;;;4991909;28;20039;-67
2023/03/02 04:39:08;;;;;;;3.47;1.55;;;;;;;;;;4990789;28;20558;-67
2023/03/02 04:41:37;;;;;;;0.70;0.70;;;;;;;;;;4990093;28;20042;-68
2023/03/02 04:44:06;;;;;;;1.20;1.00;;;;;;;;;;4991661;28;20050;-66
2023/03/02 04:46:34;;;;;;;3.40;1.25;;;;;;;;;;4986976;28;20064;-67
2023/03/02 04:49:03;;;;;;;1.15;1.15;;;;;;;;;;4992459;28;20047;-67
2023/03/02 04:51:32;;;;;;;1.10;0.75;;;;;;;;;;4987419;28;20054;-68
2023/03/02 04:54:01;;;;;;;5.05;1.23;;;;;;;;;;4993257;28;20468;-68
2023/03/02 04:56:29;;;;;;;2.85;1.45;;;;;;;;;;4991061;28;20046;-67
2023/03/02 04:59:00;;;;;;;2.38;1.27;;;;;;;;;;4994155;28;20054;-68
2023/03/02 05:01:28;;;;;;;1.77;1.67;;;;;;;;;;4984115;28;20412;-67
2023/03/02 05:03:56;;;;;;;1.90;1.30;;;;;;;;;;4989793;28;20054;-64
2023/03/02 05:06:25;;;;;;;2.22;2.03;;;;;;;;;;4984979;28;20050;-67
2023/03/02 05:08:53;;;;;;;2.17;1.55;;;;;;;;;;4992997;28;20411;-66
2023/03/02 05:11:22;;;;;;;6.70;1.75;;;;;;;;;;4986844;28;20054;-67
2023/03/02 05:13:50;;;;;;;1.63;1.52;;;;;;;;;;4987027;28;20058;-67
2023/03/02 05:16:20;;;;;;;4.72;2.63;;;;;;;;;;4987117;28;20054;-66
2023/03/02 05:18:49;;;;;;;7.18;1.90;;;;;;;;;;4989887;28;20057;-67
2023/03/02 05:21:17;;;;;;;1.55;1.45;;;;;;;;;;4983397;28;20051;-67
2023/03/02 05:23:46;;;;;;;7.88;1.58;;;;;;;;;;4986394;28;20057;-68
2023/03/02 05:26:14;;;;;;;2.25;1.48;;;;;;;;;;4991613;28;20072;-68
2023/03/02 05:28:43;;;;;;;2.17;1.25;;;;;;;;;;4991179;28;20542;-67
2023/03/02 05:31:15;;;;;;;0.85;0.85;;;;;;;;;;4988581;28;20077;-63
2023/03/02 05:33:44;;;;;;;2.75;1.83;;;;;;;;;;4987147;28;20486;-64
2023/03/02 05:36:13;;;;;;;3.38;1.25;;;;;;;;;;4990017;28;20057;-67
2023/03/02 05:38:41;;;;;;;0.98;0.60;;;;;;;;;;4991551;28;20061;-68
2023/03/02 05:41:09;;;;;;;4.47;0.90;;;;;;;;;;4989095;28;20042;-66
2023/03/02 05:43:37;;;;;;;2.45;2.08;;;;;;;;;;4987979;28;20069;-67
2023/03/02 05:46:06;;;;;;;6.47;1.98;;;;;;;;;;4986393;28;20384;-63
2023/03/02 05:48:34;;;;;;;0.80;0.80;;;;;;;;;;4982663;28;20046;-68
2023/03/02 05:51:04;;;;;;;1.90;0.93;;;;;;;;;;4989607;28;20400;-69
2023/03/02 05:53:32;;;;;;;2.40;2.20;;;;;;;;;;4981476;28;20061;-66
2023/03/02 05:56:00;;;;;;;4.80;1.83;;;;;;;;;;4986523;28;20058;-65
2023/03/02 05:58:29;;;;;;;2.15;1.55;;;;;;;;;;4987821;28;20046;-68
2023/03/02 06:00:57;;;;;;;17.73;2.28;;;;;;;;;;4984053;28;20051;-68
2023/03/02 06:03:25;;;;;;;4.85;1.45;;;;;;;;;;4991684;28;20054;-69
2023/03/02 06:05:54;;;;;;;4.60;2.47;;;;;;;;;;4983009;28;20574;-70
2023/03/02 06:08:23;;;;;;;3.63;0.85;;;;;;;;;;4989088;28;20062;-61
2023/03/02 06:10:55;;;;;;;2.97;1.40;;;;;;;;;;4989999;28;20141;-68
2023/03/02 06:13:24;;;;;;;1.38;0.73;;;;;;;;;;4988120;28;20047;-67
2023/03/02 06:15:52;;;;;;;4.70;2.00;;;;;;;;;;4986840;28;20057;-62
2023/03/02 06:18:20;;;;;;;3.17;1.58;;;;;;;;;;4977554;28;20049;-68
2023/03/02 06:20:50;;;;;;;2.38;2.05;;;;;;;;;;4989702;28;20058;-69
2023/03/02 06:23:18;;;;;;;3.08;1.00;;;;;;;;;;4991278;28;20051;-67
2023/03/02 06:25:48;;;;;;;2.45;2.28;;;;;;;;;;4986833;28;20058;-67
2023/03/02 06:28:18;;;;;;;4.35;1.88;;;;;;;;;;4989597;28;20066;-66
2023/03/02 06:30:48;;;;;;;4.15;1.42;;;;;;;;;;4988882;28;20165;-67
2023/03/02 06:33:17;;;;;;;1.15;1.15;;;;;;;;;;4990012;28;20073;-66
2023/03/02 06:35:46;;;;;;;2.40;1.67;;;;;;;;;;4986853;28;20052;-67
2023/03/02 06:38:15;;;;;;;2.50;1.20;;;;;;;;;;4990415;28;20133;-67
2023/03/02 06:40:43;;;;;;;1.75;1.65;;;;;;;;;;4988138;28;20046;-67
2023/03/02 06:43:13;;;;;;;2.10;1.92;;;;;;;;;;4990530;28;20047;-67
2023/03/02 06:45:42;;;;;;;2.70;1.77;;;;;;;;;;4985083;28;20054;-66
2023/03/02 06:48:10;;;;;;;1.50;1.40;;;;;;;;;;4989353;28;20050;-67
2023/03/02 06:50:39;;;;;;;3.78;2.45;;;;;;;;;;4988954;28;20419;-67
2023/03/02 06:53:08;;;;;;;6.80;1.05;;;;;;;;;;4991804;28;20535;-68
2023/03/02 06:55:36;;;;;;;8.23;1.52;;;;;;;;;;4992134;28;20403;-68
2023/03/02 06:58:05;;;;;;;11.15;1.92;;;;;;;;;;4990977;28;20820;-67
2023/03/02 07:00:35;;;;;;;1.60;1.50;;;;;;;;;;4987666;28;20400;-67
2023/03/02 07:03:04;;;;;;;5.07;1.98;;;;;;;;;;4990137;28;20081;-67
2023/03/02 07:05:32;;;;;;;4.68;1.65;;;;;;;;;;4991646;28;20072;-67
2023/03/02 07:08:01;;;;;;;1.25;1.15;;;;;;;;;;4990365;28;20097;-66
2023/03/02 07:10:32;;;;;;;3.42;1.75;;;;;;;;;;4990580;28;20050;-67
2023/03/02 07:13:00;;;;;;;5.32;2.85;;;;;;;;;;4983977;28;20049;-65
2023/03/02 07:15:29;;;;;;;2.08;0.95;;;;;;;;;;4981368;28;20057;-67
2023/03/02 07:17:59;;;;;;;3.35;1.75;;;;;;;;;;4990563;28;20056;-68
2023/03/02 07:20:27;;;;;;;3.88;2.20;;;;;;;;;;4989556;28;20046;-67
2023/03/02 07:22:56;;;;;;;3.63;2.13;;;;;;;;;;4991064;28;20077;-68
2023/03/02 07:25:24;;;;;;;3.55;2.72;;;;;;;;;;4996439;28;20077;-67
2023/03/02 07:27:53;;;;;;;1.23;1.13;;;;;;;;;;4995545;28;20073;-65
2023/03/02 07:30:22;;;;;;;4.20;1.45;;;;;;;;;;4996657;28;20054;-67
2023/03/02 07:32:50;;;;;;;9.73;2.00;;;;;;;;;;4997115;28;20051;-68
2023/03/02 07:35:20;;;;;;;3.40;1.98;;;;;;;;;;4997245;28;20591;-68
2023/03/02 07:37:49;;;;;;;3.08;2.05;;;;;;;;;;4993607;28;20072;-67
2023/03/02 07:40:17;;;;;;;1.63;1.52;;;;;;;;;;4996977;28;20050;-69
2023/03/02 07:42:46;;;;;;;2.53;2.03;;;;;;;;;;4997826;28;20046;-67
2023/03/02 07:45:15;;;;;;;3.63;2.15;;;;;;;;;;4996663;28;20042;-68
2023/03/02 07:47:43;;;;;;;4.32;2.78;;;;;;;;;;4996255;28;20058;-67
2023/03/02 07:50:12;;;;;;;4.50;2.33;;;;;;;;;;4996521;28;20073;-68
2023/03/02 07:52:42;;;;;;;2.53;2.03;;;;;;;;;;4995194;28;20505;-68
2023/03/02 07:55:11;;;;;;;3.00;1.23;;;;;;;;;;4997143;28;20050;-63
2023/03/02 07:57:39;;;;;;;2.13;1.92;;;;;;;;;;4996770;28;20060;-68
2023/03/02 08:00:09;;;;;;;5.18;2.22;;;;;;;;;;4996644;28;20050;-70
2023/03/02 08:02:37;;;;;;;1.45;1.17;;;;;;;;;;4990030;28;20046;-68
2023/03/02 08:05:07;;;;;;;7.18;2.63;;;;;;;;;;4995613;28;20052;-68
2023/03/02 08:07:35;;;;;;;5.45;1.73;;;;;;;;;;4996090;28;20054;-68
2023/03/02 08:10:06;;;;;;;0.63;0.63;;;;;;;;;;4997561;28;20050;-66
2023/03/02 08:12:34;;;;;;;3.75;1.50;;;;;;;;;;4997368;28;20133;-68
2023/03/02 08:15:03;;;;;;;2.88;1.60;;;;;;;;;;4992787;28;20503;-66
2023/03/02 08:17:32;;;;;;;10.93;2.72;;;;;;;;;;4990113;28;20733;-67
2023/03/02 08:20:01;;;;;;;6.20;2.05;;;;;;;;;;4997499;28;20132;-68
2023/03/02 08:22:29;;;;;;;2.13;1.90;;;;;;;;;;4994452;28;20053;-62
2023/03/02 08:24:58;;;;;;;3.97;2.03;;;;;;;;;;4993925;28;20081;-67
2023/03/02 08:27:28;;;;;;;5.13;2.38;;;;;;;;;;4998973;28;20056;-68
2023/03/02 08:29:57;;;;;;;2.28;2.00;;;;;;;;;;4993112;28;20134;-69
2023/03/02 08:32:26;;;;;;;4.18;1.65;;;;;;;;;;4995923;28;20133;-68
2023/03/02 08:34:54;;;;;;;7.65;3.95;;;;;;;;;;4994005;28;20050;-68
2023/03/02 08:37:23;;;;;;;7.93;2.33;;;;;;;;;;4992969;28;20097;-68
2023/03/02 08:39:51;;;;;;;3.28;2.75;;;;;;;;;;4993157;28;20998;-67
2023/03/02 08:42:20;;;;;;;6.80;3.75;;;;;;;;;;4992466;28;20054;-68
2023/03/02 08:44:50;;;;;;;3.58;2.45;;;;;;;;;;4992668;28;20440;-67
2023/03/02 08:47:19;;;;;;;5.50;2.40;;;;;;;;;;4991486;28;20060;-69
2023/03/02 08:49:49;;;;;;;6.03;2.92;;;;;;;;;;4993514;28;20054;-66
2023/03/02 08:52:17;;;;;;;6.32;3.25;;;;;;;;;;4993810;28;20556;-69
2023/03/02 08:54:46;;;;;;;7.57;2.25;;;;;;;;;;4991411;28;20503;-62
2023/03/02 08:57:14;;;;;;;5.50;3.92;;;;;;;;;;4992449;28;20406;-68
2023/03/02 08:59:43;;;;;;;5.60;2.70;;;;;;;;;;4992934;28;20458;-68
2023/03/02 09:02:13;;;;;;;8.90;3.58;;;;;;;;;;4992066;28;20046;-67
2023/03/02 09:04:41;;;;;;;8.02;3.78;;;;;;;;;;4993621;28;20068;-66
2023/03/02 09:07:10;;;;;;;3.70;1.75;;;;;;;;;;4987248;28;20117;-68
2023/03/02 09:09:39;;;;;;;7.28;4.10;;;;;;;;;;4993100;28;20126;-69
2023/03/02 09:12:07;;;;;;;5.20;3.03;;;;;;;;;;4993295;28;20534;-68
2023/03/02 09:14:36;;;;;;;3.60;1.50;;;;;;;;;;4979809;28;20483;-68
2023/03/02 09:17:05;;;;;;;8.73;2.45;;;;;;;;;;4989061;28;20514;-69
2023/03/02 09:19:40;;;;;;;9.23;4.10;;;;;;;;;;4992594;28;20564;-67
2023/03/02 09:22:12;;;;;;;9.27;4.22;;;;;;;;;;4986306;28;20491;-68
2023/03/02 09:24:40;;;;;;;8.20;4.32;;;;;;;;;;4993532;28;20046;-69
2023/03/02 09:27:09;;;;;;;7.65;3.20;;;;;;;;;;4991909;28;20049;-69
2023/03/02 09:29:37;;;;;;;5.68;2.85;;;;;;;;;;4991545;28;20144;-67
2023/03/02 09:32:05;;;;;;;6.25;3.15;;;;;;;;;;4988577;28;20045;-69
2023/03/02 09:34:36;;;;;;;8.48;2.55;;;;;;;;;;4991190;28;20518;-69
2023/03/02 09:37:04;;;;;;;9.40;4.78;;;;;;;;;;4992877;28;20448;-68
2023/03/02 09:39:33;;;;;;;11.20;4.60;;;;;;;;;;4992505;28;20046;-70
2023/03/02 09:42:11;;;;;;;5.07;2.03;;;;;;;;;;4981950;28;20506;-67
2023/03/02 09:44:49;;;;;;;8.55;2.97;;;;;;;;;;4986676;28;20109;-69
2023/03/02 09:47:21;;;;;;;5.30;3.30;;;;;;;;;;4992515;28;20097;-64
2023/03/02 09:50:07;;;;;;;8.48;4.28;;;;;;;;;;4989026;28;20104;-67
2023/03/02 09:52:39;;;;;;;7.78;4.05;;;;;;;;;;4991623;28;20062;-68
2023/03/02 09:55:13;;;;;;;11.23;4.95;;;;;;;;;;4989907;28;20074;-64
2023/03/02 09:57:42;;;;;;;5.72;2.47;;;;;;;;;;4983378;28;20407;-68
2023/03/02 10:00:13;;;;;;;14.05;3.55;;;;;;;;;;4989726;28;20078;-66
2023/03/02 10:02:50;;;;;;;9.10;4.15;;;;;;;;;;4989027;28;20085;-69
2023/03/02 10:05:21;;;;;;;6.38;3.30;;;;;;;;;;4989959;28;20136;-70
2023/03/02 10:07:50;;;;;;;8.77;4.03;;;;;;;;;;4984244;28;20522;-69
2023/03/02 10:10:24;;;;;;;6.22;3.22;;;;;;;;;;4984527;28;20052;-68
2023/03/02 10:13:01;;;;;;;9.50;2.97;;;;;;;;;;4984359;28;20050;-68
2023/03/02 10:15:32;;;;;;;2.53;1.67;;;;;;;;;;4985536;28;20339;-68
2023/03/02 10:18:04;;;;;;;13.30;3.30;;;;;;;;;;4987629;28;20073;-67
2023/03/02 10:20:37;;;;;;;16.27;4.05;;;;;;;;;;4988728;28;20110;-66
2023/03/02 10:23:11;;;;;;;12.80;3.70;;;;;;;;;;4984287;28;20046;-67
2023/03/02 10:26:14;;;;;;;7.32;3.67;;;;;;;;;;4983698;28;20050;-68
2023/03/02 10:28:46;;;;;;;12.48;4.03;;;;;;;;;;4968444;28;20495;-64
2023/03/02 10:31:15;;;;;;;8.00;3.08;;;;;;;;;;4959775;28;20052;-68
2023/03/02 10:33:43;;;;;;;3.22;1.83;;;;;;;;;;4985990;28;20181;-67
2023/03/02 10:36:19;;;;;;;9.95;3.83;;;;;;;;;;4987687;28;20104;-65
2023/03/02 10:38:48;;;;;;;5.07;2.72;;;;;;;;;;4969013;28;20120;-64
2023/03/02 10:41:21;;;;;;;5.57;2.55;;;;;;;;;;4986821;28;20082;-65
2023/03/02 10:43:52;;;;;;;8.88;3.20;;;;;;;;;;4988534;28;20506;-66
2023/03/02 10:46:21;;;;;;;7.22;2.95;;;;;;;;;;4983122;28;20461;-64
2023/03/02 10:48:55;;;;;;;6.43;4.28;;;;;;;;;;4988106;28;20081;-65
2023/03/02 10:51:28;;;;;;;13.18;4.18;;;;;;;;;;4986778;28;20046;-63
2023/03/02 10:54:07;;;;;;;7.57;4.28;;;;;;;;;;4987678;28;20132;-64
2023/03/02 10:56:35;;;;;;;8.15;3.15;;;;;;;;;;4986587;28;20157;-65
2023/03/02 10:59:13;;;;;;;9.85;4.10;;;;;;;;;;4986482;28;20065;-64
2023/03/02 11:01:42;;;;;;;9.07;3.35;;;;;;;;;;4985879;28;20042;-66
2023/03/02 11:04:15;;;;;;;7.78;3.25;;;;;;;;;;4980795;28;20054;-65
2023/03/02 11:06:45;;;;;;;6.50;2.38;;;;;;;;;;4984807;28;20065;-69
2023/03/02 11:09:16;;;;;;;11.10;4.72;;;;;;;;;;4986104;28;20503;-67
2023/03/02 11:11:50;;;;;;;11.15;2.90;;;;;;;;;;4983779;28;20898;-68
2023/03/02 11:14:19;;;;;;;15.00;3.22;;;;;;;;;;4985164;28;20138;-66
2023/03/02 11:16:47;;;;;;;4.85;2.63;;;;;;;;;;4984481;28;20487;-66
2023/03/02 11:19:18;;;;;;;16.92;4.32;;;;;;;;;;4987343;28;20054;-62
2023/03/02 11:21:52;;;;;;;7.13;2.80;;;;;;;;;;4984478;28;20053;-68
2023/03/02 11:24:23;;;;;;;8.38;2.58;;;;;;;;;;4987012;28;20069;-69
2023/03/02 11:26:53;;;;;;;5.88;3.22;;;;;;;;;;4985034;28;20480;-66
2023/03/02 11:29:29;;;;;;;8.10;2.40;;;;;;;;;;4976468;28;20503;-60
2023/03/02 11:32:00;;;;;;;5.85;3.30;;;;;;;;;;4985866;28;20537;-65
2023/03/02 11:34:32;;;;;;;16.88;2.67;;;;;;;;;;4984585;28;20105;-61
2023/03/02 11:37:05;;;;;;;6.80;2.42;;;;;;;;;;4985056;28;20081;-67
2023/03/02 11:39:39;;;;;;;5.22;2.60;;;;;;;;;;4983270;28;20050;-65
2023/03/02 11:42:21;;;;;;;6.00;2.05;;;;;;;;;;4984241;28;20050;-64
2023/03/02 11:44:50;;;;;;;5.93;2.10;;;;;;;;;;4984564;28;20046;-67
2023/03/02 11:47:19;;;;;;;4.53;2.08;;;;;;;;;;4982928;28;20058;-65
2023/03/02 11:49:53;;;;;;;5.30;2.30;;;;;;;;;;4982308;28;20361;-67
2023/03/02 11:52:25;;;;;;;8.32;2.50;;;;;;;;;;4986164;28;20480;-67
2023/03/02 11:54:54;;;;;;;7.03;2.70;;;;;;;;;;4987162;28;20442;-67
2023/03/02 11:57:26;;;;;;;5.85;2.25;;;;;;;;;;4987457;28;20054;-68
2023/03/02 11:59:55;;;;;;;4.68;1.88;;;;;;;;;;4986103;28;20050;-66
2023/03/02 12:02:24;;;;;;;14.02;2.42;;;;;;;;;;4987356;28;20050;-68
2023/03/02 12:05:02;;;;;;;2.67;1.67;;;;;;;;;;4985000;28;20117;-67
2023/03/02 12:07:32;;;;;;;6.47;3.13;;;;;;;;;;4984543;28;20157;-65
2023/03/02 12:10:01;;;;;;;6.53;1.85;;;;;;;;;;4989197;28;20054;-67
2023/03/02 12:12:39;;;;;;;7.78;1.98;;;;;;;;;;4991616;28;20046;-64
2023/03/02 12:15:27;;;;;;;4.03;1.77;;;;;;;;;;4988278;28;20053;-62
2023/03/02 12:17:56;;;;;;;7.90;2.22;;;;;;;;;;4990618;28;20129;-68
2023/03/02 12:20:28;;;;;;;3.25;1.70;;;;;;;;;;4994551;28;20578;-67
2023/03/02 12:23:08;;;;;;;7.75;2.08;;;;;;;;;;4994456;28;20081;-68
2023/03/02 12:25:39;;;;;;;10.32;2.10;;;;;;;;;;4990056;28;20054;-68
2023/03/02 12:28:25;;;;;;;2.20;1.45;;;;;;;;;;4993141;28;20061;-68
2023/03/02 12:30:57;;;;;;;2.05;1.65;;;;;;;;;;4991427;28;20137;-68
2023/03/02 12:33:26;;;;;;;10.43;2.45;;;;;;;;;;4992226;28;20050;-68
2023/03/02 12:36:02;;;;;;;7.22;2.58;;;;;;;;;;4990808;28;20050;-78
2023/03/02 12:38:33;;;;;;;4.68;2.00;;;;;;;;;;4994010;28;20490;-64
2023/03/02 12:41:20;;;;;;;7.03;2.50;;;;;;;;;;4991890;28;20047;-78
2023/03/02 12:43:56;;;;;;;3.83;1.65;;;;;;;;;;4991184;28;20108;-76
2023/03/02 12:46:33;;;;;;;8.95;2.47;;;;;;;;;;4990250;28;20455;-74
2023/03/02 12:49:15;;;;;;;4.25;1.67;;;;;;;;;;4994149;28;20459;-77
2023/03/02 12:51:47;;;;;;;10.93;1.92;;;;;;;;;;4993171;28;20054;-74
2023/03/02 12:54:19;;;;;;;3.20;1.98;;;;;;;;;;4991792;28;20129;-78
2023/03/02 12:56:48;;;;;;;2.47;1.45;;;;;;;;;;4991836;28;20119;-78
2023/03/02 12:59:24;;;;;;;5.72;1.75;;;;;;;;;;4990587;28;20149;-78
2023/03/02 13:01:52;;;;;;;4.68;2.13;;;;;;;;;;4990155;28;20483;-77
2023/03/02 13:04:22;;;;;;;7.82;2.25;;;;;;;;;;4984993;28;20058;-80
2023/03/02 13:06:51;;;;;;;7.03;2.38;;;;;;;;;;4990305;28;20134;-79
2023/03/02 13:09:21;;;;;;;5.38;1.52;;;;;;;;;;4992793;28;20054;-79
2023/03/02 13:11:53;;;;;;;4.50;1.58;;;;;;;;;;4991418;28;20459;-78
2023/03/02 13:14:25;;;;;;;2.33;1.33;;;;;;;;;;4987756;28;20491;-79
2023/03/02 13:16:57;;;;;;;5.93;1.83;;;;;;;;;;4988251;28;20046;-79
2023/03/02 13:19:27;;;;;;;5.60;2.33;;;;;;;;;;4993037;28;20492;-78
2023/03/02 13:21:55;;;;;;;5.15;2.38;;;;;;;;;;4987963;28;20443;-77
2023/03/02 13:24:31;;;;;;;4.75;2.78;;;;;;;;;;4992109;28;20058;-78
2023/03/02 13:27:01;;;;;;;3.22;1.35;;;;;;;;;;4988421;28;20056;-79
2023/03/02 13:29:30;;;;;;;3.35;1.58;;;;;;;;;;4991192;28;20403;-79
2023/03/02 13:32:08;;;;;;;4.45;1.88;;;;;;;;;;4989514;28;20053;-76
2023/03/02 13:34:37;;;;;;;8.55;2.50;;;;;;;;;;4990543;28;20050;-79
2023/03/02 13:37:19;;;;;;;4.82;2.47;;;;;;;;;;4990456;28;20101;-73
2023/03/02 13:39:56;;;;;;;3.20;1.33;;;;;;;;;;4988435;28;20495;-76
2023/03/02 13:42:27;;;;;;;3.92;1.92;;;;;;;;;;4991166;28;20118;-76
2023/03/02 13:44:55;;;;;;;7.15;2.03;;;;;;;;;;4990338;28;20530;-79
2023/03/02 13:47:24;;;;;;;5.05;2.15;;;;;;;;;;4991576;28;20061;-77
2023/03/02 13:49:53;;;;;;;3.47;1.55;;;;;;;;;;4991530;28;20049;-78
2023/03/02 13:52:23;;;;;;;4.30;1.52;;;;;;;;;;4991533;28;20073;-79
2023/03/02 13:54:51;;;;;;;6.22;2.05;;;;;;;;;;4990848;28;20057;-78
2023/03/02 13:57:23;;;;;;;5.88;2.53;;;;;;;;;;4991258;28;20058;-79
2023/03/02 13:59:52;;;;;;;4.07;1.90;;;;;;;;;;4989707;28;20046;-79
2023/03/02 14:02:24;;;;;;;4.63;2.10;;;;;;;;;;4988071;28;20060;-78
2023/03/02 14:04:53;;;;;;;7.53;2.28;;;;;;;;;;4989289;28;20172;-79
2023/03/02 14:07:22;;;;;;;5.68;2.35;;;;;;;;;;4983877;28;20070;-79
2023/03/02 14:09:50;;;;;;;4.85;2.22;;;;;;;;;;4987584;28;20042;-76
2023/03/02 14:12:23;;;;;;;5.80;1.75;;;;;;;;;;4988552;28;20058;-78
2023/03/02 14:14:53;;;;;;;6.95;2.28;;;;;;;;;;4986417;28;20046;-79
2023/03/02 14:17:23;;;;;;;9.57;2.47;;;;;;;;;;4977439;28;20084;-75
2023/03/02 14:19:52;;;;;;;5.35;2.55;;;;;;;;;;4988339;28;20566;-77
2023/03/02 14:22:21;;;;;;;6.35;1.75;;;;;;;;;;4986213;28;20507;-74
2023/03/02 14:24:49;;;;;;;5.45;2.55;;;;;;;;;;4989288;28;20591;-77
2023/03/02 14:27:18;;;;;;;3.15;1.50;;;;;;;;;;4988405;28;20049;-71
2023/03/02 14:29:48;;;;;;;6.32;2.05;;;;;;;;;;4989201;28;20047;-77
2023/03/02 14:32:17;;;;;;;8.35;2.80;;;;;;;;;;4996500;28;20049;-73
2023/03/02 14:34:46;;;;;;;6.75;2.67;;;;;;;;;;4990499;28;20049;-74
2023/03/02 14:37:15;;;;;;;7.40;1.95;;;;;;;;;;4983360;28;20054;-76
2023/03/02 14:39:44;;;;;;;4.07;1.63;;;;;;;;;;4988855;28;20054;-75
2023/03/02 14:42:14;;;;;;;3.45;1.80;;;;;;;;;;4986420;28;20057;-77
2023/03/02 14:44:43;;;;;;;4.13;2.85;;;;;;;;;;4988526;28;20480;-77
2023/03/02 14:47:15;;;;;;;5.32;1.75;;;;;;;;;;4984510;28;20053;-77
2023/03/02 14:49:44;;;;;;;5.63;2.45;;;;;;;;;;4988143;28;20503;-75
2023/03/02 14:52:14;;;;;;;6.25;2.10;;;;;;;;;;4986169;28;20082;-78
2023/03/02 14:54:44;;;;;;;5.15;2.38;;;;;;;;;;4989157;28;20499;-77
2023/03/02 14:57:16;;;;;;;8.10;2.88;;;;;;;;;;4988222;28;20138;-77
2023/03/02 14:59:45;;;;;;;5.18;2.17;;;;;;;;;;4986305;28;20057;-77